Time,TemperatureF,DewpointF,PressureIn,WindDirection,WindDirectionDegrees,WindSpeedMPH,WindSpeedGustMPH,Humidity,HourlyPrecipIn,Conditions,Clouds,dailyrainin,SoftwareType,DateUTC
2013-04-27 00:00:00,71.6,66.2,29.85,SSE,158,4.0,9.0,83,0.00,,SKC,0.00,VWS V14.01,2013-04-27 05:00:00,
2013-04-27 00:30:00,72.8,66.3,29.67,SSE,158,6.0,14.0,80,0.00,,SKC,0.00,VWS V14.01,2013-04-27 05:30:00,
2013-04-27 01:00:00,72.6,66.1,29.55,SSW,202,7.0,15.0,80,0.00,,SKC,0.00,VWS V14.01,2013-04-27 06:00:00,
2013-04-27 01:30:00,72.4,65.5,29.55,SSW,202,6.0,17.0,79,0.00,,SKC,0.00,VWS V14.01,2013-04-27 06:30:00,
2013-04-27 02:00:00,71.7,65.2,29.98,SSW,202,6.0,16.0,80,0.00,,SKC,0.00,VWS V14.01,2013-04-27 07:00:00,
2013-04-27 02:30:00,71.0,64.5,29.88,SSW,202,6.0,12.0,80,0.00,,SKC,0.00,VWS V14.01,2013-04-27 07:30:00,
2013-04-27 03:00:00,70.4,64.7,30.02,SW,225,4.0,12.0,82,0.00,,SKC,0.00,VWS V14.01,2013-04-27 08:00:00,
2013-04-27 03:30:00,70.3,64.6,29.96,SSW,202,4.0,8.0,82,0.00,,SKC,0.00,VWS V14.01,2013-04-27 08:30:00,
2013-04-27 04:00:00,70.4,64.7,29.82,SSW,202,6.0,12.0,82,0.00,,SKC,0.00,VWS V14.01,2013-04-27 09:00:00,
2013-04-27 04:30:00,70.1,64.7,29.97,SSW,202,7.0,14.0,83,0.00,,SKC,0.00,VWS V14.01,2013-04-27 09:30:00,
2013-04-27 05:00:00,69.8,64.8,30.01,SSW,202,7.0,13.0,84,0.00,,SKC,0.00,VWS V14.01,2013-04-27 10:00:00,
2013-04-27 05:30:00,69.4,65.0,29.99,SSW,202,7.0,14.0,86,0.00,,SKC,0.00,VWS V14.01,2013-04-27 10:30:00,
2013-04-27 06:00:00,69.3,64.9,30.01,SSW,202,6.0,14.0,86,0.00,,SKC,0.00,VWS V14.01,2013-04-27 11:00:00,
2013-04-27 06:30:00,68.9,64.9,29.86,SSW,202,6.0,13.0,87,0.00,,SKC,0.00,VWS V14.01,2013-04-27 11:30:00,
2013-04-27 07:00:00,68.4,65.0,30.01,SSW,202,6.0,14.0,89,0.00,,SKC,0.00,VWS V14.01,2013-04-27 12:00:00,
2013-04-27 07:30:00,68.4,65.0,29.79,SW,225,4.0,12.0,89,0.00,,SKC,0.00,VWS V14.01,2013-04-27 12:30:00,
2013-04-27 08:00:00,68.7,65.3,29.80,WSW,248,4.0,12.0,89,0.00,,SKC,0.00,VWS V14.01,2013-04-27 13:00:00,
2013-04-27 08:30:00,67.3,62.0,29.72,NNW,338,2.0,10.0,83,0.00,,SKC,0.00,VWS V14.01,2013-04-27 13:30:00,
2013-04-27 09:00:00,67.2,61.2,29.60,NNW,338,2.0,9.0,81,0.00,,SKC,0.00,VWS V14.01,2013-04-27 14:00:00,
2013-04-27 09:30:00,67.2,61.5,30.08,NNW,338,3.0,9.0,82,0.00,,SKC,0.00,VWS V14.01,2013-04-27 14:30:00,
2013-04-27 10:00:00,68.2,61.5,30.08,NW,315,2.0,9.0,79,0.00,,SKC,0.00,VWS V14.01,2013-04-27 15:00:00,
2013-04-27 10:30:00,67.5,60.8,30.07,NNW,338,2.0,9.0,79,0.00,,SKC,0.00,VWS V14.01,2013-04-27 15:30:00,
2013-04-27 11:00:00,67.4,60.7,29.91,NW,315,2.0,8.0,79,0.00,,SKC,0.00,VWS V14.01,2013-04-27 16:00:00,
2013-04-27 11:30:00,69.2,61.3,30.11,NW,315,2.0,8.0,76,0.00,,SKC,0.00,VWS V14.01,2013-04-27 16:30:00,
2013-04-27 12:00:00,69.5,60.5,30.01,NNW,338,2.0,7.0,73,0.00,,SKC,0.00,VWS V14.01,2013-04-27 17:00:00,
2013-04-27 12:30:00,69.2,60.2,30.02,NNW,338,2.0,6.0,73,0.00,,SKC,0.00,VWS V14.01,2013-04-27 17:30:00,
2013-04-27 13:00:00,69.7,59.5,30.03,NNW,338,2.0,7.0,70,0.00,,SKC,0.00,VWS V14.01,2013-04-27 18:00:00,
2013-04-27 13:30:00,69.8,60.0,30.03,NNW,338,3.0,10.0,71,0.00,,SKC,0.00,VWS V14.01,2013-04-27 18:30:00,
2013-04-27 14:00:00,71.2,58.8,30.08,NW,315,2.0,7.0,65,0.00,,SKC,0.00,VWS V14.01,2013-04-27 19:00:00,
2013-04-27 14:30:00,71.0,58.7,29.70,NNW,338,1.0,7.0,65,0.00,,SKC,0.00,VWS V14.01,2013-04-27 19:30:00,
2013-04-27 15:00:00,72.5,58.3,29.64,NNW,338,1.0,6.0,61,0.00,,SKC,0.00,VWS V14.01,2013-04-27 20:00:00,
2013-04-27 15:30:00,73.9,59.6,30.08,NW,315,1.0,8.0,61,0.00,,SKC,0.00,VWS V14.01,2013-04-27 20:30:00,
2013-04-27 16:00:00,74.2,59.0,29.58,NNE,22,1.0,6.0,59,0.00,,SKC,0.00,VWS V14.01,2013-04-27 21:00:00,
2013-04-27 16:30:00,74.0,58.8,29.85,ENE,68,1.0,6.0,59,0.00,,SKC,0.00,VWS V14.01,2013-04-27 21:30:00,
2013-04-27 17:00:00,73.8,58.6,29.60,NW,315,1.0,8.0,59,0.00,,SKC,0.00,VWS V14.01,2013-04-27 22:00:00,
2013-04-27 17:30:00,75.2,59.9,29.55,ENE,68,1.0,6.0,59,0.00,,SKC,0.00,VWS V14.01,2013-04-27 22:30:00,
2013-04-27 18:00:00,74.7,58.0,29.50,NNE,22,2.0,6.0,56,0.00,,SKC,0.00,VWS V14.01,2013-04-27 23:00:00,
2013-04-27 18:30:00,74.5,58.8,29.54,NW,315,1.0,6.0,58,0.00,,SKC,0.00,VWS V14.01,2013-04-27 23:30:00,
2013-04-27 19:00:00,72.9,58.2,29.18,NW,315,1.0,4.0,60,0.00,,SKC,0.00,VWS V14.01,2013-04-28 00:00:00,
2013-04-27 19:30:00,71.6,58.3,29.39,NW,315,0.0,2.0,63,0.00,,SKC,0.00,VWS V14.01,2013-04-28 00:30:00,
2013-04-27 20:00:00,69.3,58.7,28.91,North,0,0.0,2.0,69,0.00,,SKC,0.00,VWS V14.01,2013-04-28 01:00:00,
2013-04-27 20:30:00,66.3,57.8,29.11,North,0,0.0,0.0,74,0.00,,SKC,0.00,VWS V14.01,2013-04-28 01:30:00,
2013-04-27 21:00:00,64.0,56.7,29.31,North,0,0.0,0.0,77,0.00,,SKC,0.00,VWS V14.01,2013-04-28 02:00:00,
2013-04-27 21:30:00,63.2,56.9,29.30,NNE,22,0.0,1.0,80,0.00,,SKC,0.00,VWS V14.01,2013-04-28 02:30:00,
2013-04-27 22:00:00,62.8,56.5,29.45,NE,45,0.0,2.0,80,0.00,,SKC,0.00,VWS V14.01,2013-04-28 03:00:00,
2013-04-27 22:30:00,62.3,56.4,29.52,East,90,1.0,5.0,81,0.00,,SKC,0.00,VWS V14.01,2013-04-28 03:30:00,
2013-04-27 23:00:00,61.2,55.7,29.61,ENE,68,1.0,4.0,82,0.00,,SKC,0.00,VWS V14.01,2013-04-28 04:00:00,
2013-04-27 23:30:00,60.2,55.0,29.72,ENE,68,0.0,3.0,83,0.00,,SKC,0.00,VWS V14.01,2013-04-28 04:30:00,